Time;durP1;ratioP1;P1;durP2;ratioP2;P2;SDS_P1;SDS_P2;PMS_P1;PMS_P2;Temp;Humidity;BMP_temperature;BMP_pressure;BME280_temperature;BME280_humidity;BME280_pressure;Samples;Min_cycle;Max_cycle;Signal;HPM_P1;HPM_P2
2022/09/25 00:00:46;;;;;;;26.08;20.48;;;;;;;;;;5060158;28;20669;-75
2022/09/25 00:03:14;;;;;;;26.85;21.50;;;;;;;;;;5059423;28;20131;-76
2022/09/25 00:05:44;;;;;;;20.63;18.42;;;;;;;;;;5069527;28;20064;-75
2022/09/25 00:08:12;;;;;;;18.98;17.08;;;;;;;;;;5063572;28;20044;-75
2022/09/25 00:10:43;;;;;;;23.05;18.92;;;;;;;;;;5071769;28;20066;-75
2022/09/25 00:13:11;;;;;;;22.83;17.38;;;;;;;;;;5069757;28;20044;-75
2022/09/25 00:15:44;;;;;;;23.23;18.60;;;;;;;;;;5059059;28;20148;-75
2022/09/25 00:18:12;;;;;;;21.50;18.98;;;;;;;;;;5067252;28;20536;-75
2022/09/25 00:20:39;;;;;;;19.33;16.73;;;;;;;;;;5053949;28;20432;-76
2022/09/25 00:23:06;;;;;;;21.85;18.05;;;;;;;;;;5070153;28;20068;-75
2022/09/25 00:25:34;;;;;;;20.40;18.05;;;;;;;;;;5072418;28;20060;-75
2022/09/25 00:28:01;;;;;;;20.48;18.27;;;;;;;;;;5070985;28;20083;-75
2022/09/25 00:30:29;;;;;;;20.30;18.30;;;;;;;;;;5067325;28;20140;-76
2022/09/25 00:32:56;;;;;;;19.17;16.98;;;;;;;;;;5035584;28;20052;-76
2022/09/25 00:35:23;;;;;;;17.88;16.08;;;;;;;;;;5065316;28;20052;-75
2022/09/25 00:37:50;;;;;;;17.90;16.10;;;;;;;;;;5053326;28;20149;-75
2022/09/25 00:40:18;;;;;;;19.30;16.90;;;;;;;;;;5072385;28;20505;-76
2022/09/25 00:42:45;;;;;;;22.92;17.98;;;;;;;;;;5062754;28;20052;-76
2022/09/25 00:45:15;;;;;;;19.95;16.60;;;;;;;;;;5072439;28;20048;-76
2022/09/25 00:47:46;;;;;;;37.65;18.52;;;;;;;;;;5069236;28;20032;-76
2022/09/25 00:50:25;;;;;;;21.20;16.95;;;;;;;;;;5055034;28;20567;-75
2022/09/25 00:52:55;;;;;;;18.60;16.52;;;;;;;;;;5051816;28;20056;-75
2022/09/25 00:55:22;;;;;;;18.25;16.27;;;;;;;;;;5067246;28;20055;-76
2022/09/25 00:57:52;;;;;;;20.55;15.35;;;;;;;;;;5047018;28;20056;-75
2022/09/25 01:00:19;;;;;;;17.85;16.02;;;;;;;;;;5068775;28;20052;-75
2022/09/25 01:02:51;;;;;;;18.65;15.80;;;;;;;;;;5066584;28;20064;-76
2022/09/25 01:05:21;;;;;;;18.10;16.20;;;;;;;;;;5065840;28;20415;-76
2022/09/25 01:07:49;;;;;;;20.52;16.50;;;;;;;;;;5064983;28;20383;-75
2022/09/25 01:10:18;;;;;;;18.40;16.52;;;;;;;;;;5054956;28;20045;-76
2022/09/25 01:12:47;;;;;;;23.92;19.15;;;;;;;;;;5049029;28;20036;-76
2022/09/25 01:15:16;;;;;;;18.70;16.55;;;;;;;;;;5050157;28;20041;-76
2022/09/25 01:17:49;;;;;;;23.67;16.58;;;;;;;;;;5066544;28;20041;-76
2022/09/25 01:20:25;;;;;;;17.30;15.50;;;;;;;;;;5067580;28;20098;-76
2022/09/25 01:22:52;;;;;;;18.08;16.02;;;;;;;;;;5065469;28;20048;-76
2022/09/25 01:25:25;;;;;;;19.83;16.00;;;;;;;;;;5067858;28;20069;-76
2022/09/25 01:27:53;;;;;;;17.60;15.80;;;;;;;;;;5068424;28;20067;-75
2022/09/25 01:30:20;;;;;;;20.20;15.98;;;;;;;;;;5069709;28;20116;-76
2022/09/25 01:32:54;;;;;;;17.60;15.70;;;;;;;;;;5065273;28;20074;-76
2022/09/25 01:35:28;;;;;;;19.00;16.45;;;;;;;;;;5065873;28;20040;-77
2022/09/25 01:37:58;;;;;;;13.57;12.18;;;;;;;;;;5069442;28;20082;-76
2022/09/25 01:40:26;;;;;;;16.45;14.77;;;;;;;;;;5069750;28;20048;-76
2022/09/25 01:43:04;;;;;;;17.67;15.88;;;;;;;;;;5062359;28;20167;-76
2022/09/25 01:45:52;;;;;;;16.20;14.50;;;;;;;;;;5067503;28;20102;-76
2022/09/25 01:48:22;;;;;;;18.20;16.25;;;;;;;;;;5065441;28;20037;-76
2022/09/25 01:50:52;;;;;;;17.85;16.00;;;;;;;;;;5064692;28;20033;-76
2022/09/25 01:53:22;;;;;;;18.85;16.85;;;;;;;;;;5050571;28;20072;-75
2022/09/25 01:56:05;;;;;;;18.17;15.82;;;;;;;;;;5068746;28;20379;-76
2022/09/25 01:58:39;;;;;;;19.83;16.77;;;;;;;;;;5067745;28;20052;-76
2022/09/25 02:01:11;;;;;;;18.40;16.60;;;;;;;;;;5065633;28;20511;-76
2022/09/25 02:03:42;;;;;;;18.70;15.68;;;;;;;;;;5065552;28;20040;-76
2022/09/25 02:06:10;;;;;;;;;;;;;;;;;;5064954;28;20683;-76
2022/09/25 02:08:43;;;;;;;21.17;16.75;;;;;;;;;;5060040;28;20039;-76
2022/09/25 02:11:11;;;;;;;27.83;16.77;;;;;;;;;;5066387;28;20041;-76
2022/09/25 02:13:43;;;;;;;20.02;16.65;;;;;;;;;;5066907;28;20098;-76
2022/09/25 02:16:12;;;;;;;21.83;17.33;;;;;;;;;;5064835;28;20041;-76
2022/09/25 02:21:42;;;;;;;20.63;16.63;;;;;;;;;;5066674;28;20086;-76
2022/09/25 02:24:09;;;;;;;20.90;16.42;;;;;;;;;;5063424;28;20041;-76
2022/09/25 02:26:37;;;;;;;23.13;17.25;;;;;;;;;;5066678;28;20048;-76
2022/09/25 02:29:04;;;;;;;20.80;16.63;;;;;;;;;;5067329;28;20036;-76
2022/09/25 02:31:34;;;;;;;20.52;16.77;;;;;;;;;;5066784;28;20046;-76
2022/09/25 02:34:02;;;;;;;22.00;18.02;;;;;;;;;;5053915;28;20029;-76
2022/09/25 02:36:31;;;;;;;23.23;18.05;;;;;;;;;;5052402;28;20045;-76
2022/09/25 02:38:58;;;;;;;20.85;17.42;;;;;;;;;;5053615;28;20505;-76
2022/09/25 02:41:25;;;;;;;23.05;17.73;;;;;;;;;;5052439;28;20280;-76
2022/09/25 02:44:10;;;;;;;22.88;18.48;;;;;;;;;;5058949;28;20529;-76
2022/09/25 02:47:12;;;;;;;22.23;16.27;;;;;;;;;;5065738;28;20047;-76
2022/09/25 02:49:42;;;;;;;23.75;17.02;;;;;;;;;;5037694;28;20167;-76
2022/09/25 02:52:11;;;;;;;25.75;16.95;;;;;;;;;;5071768;28;20044;-76
2022/09/25 02:54:48;;;;;;;20.60;17.08;;;;;;;;;;5068490;28;20136;-76
2022/09/25 02:57:27;;;;;;;23.27;17.33;;;;;;;;;;5036366;28;20090;-76
2022/09/25 02:59:57;;;;;;;21.58;17.75;;;;;;;;;;5050482;28;20876;-76
2022/09/25 03:02:26;;;;;;;22.02;16.80;;;;;;;;;;5063756;28;20106;-76
2022/09/25 03:04:54;;;;;;;21.95;17.30;;;;;;;;;;5070183;28;20048;-76
2022/09/25 03:07:22;;;;;;;22.63;16.42;;;;;;;;;;5071087;28;20051;-76
2022/09/25 03:09:50;;;;;;;22.38;16.65;;;;;;;;;;5071590;28;20783;-76
2022/09/25 03:12:17;;;;;;;19.75;16.50;;;;;;;;;;5063882;28;20098;-76
2022/09/25 03:14:45;;;;;;;22.65;16.45;;;;;;;;;;5064277;28;20127;-76
2022/09/25 03:17:13;;;;;;;18.52;16.15;;;;;;;;;;5069796;28;20033;-76
2022/09/25 03:19:41;;;;;;;18.40;15.52;;;;;;;;;;5071346;28;20386;-76
2022/09/25 03:22:08;;;;;;;19.33;15.93;;;;;;;;;;5051234;28;20052;-76
2022/09/25 03:24:37;;;;;;;19.60;16.13;;;;;;;;;;5063316;28;20121;-76
2022/09/25 03:27:04;;;;;;;22.02;15.77;;;;;;;;;;5071002;28;20044;-76
2022/09/25 03:29:31;;;;;;;19.02;15.45;;;;;;;;;;5069788;28;20064;-76
2022/09/25 03:31:58;;;;;;;21.23;16.08;;;;;;;;;;5051977;28;20048;-76
2022/09/25 03:34:26;;;;;;;16.70;14.93;;;;;;;;;;5069338;28;20484;-76
2022/09/25 03:36:53;;;;;;;18.55;15.68;;;;;;;;;;5071012;28;20090;-76
2022/09/25 03:39:20;;;;;;;20.35;15.38;;;;;;;;;;5070550;28;20053;-76
2022/09/25 03:41:48;;;;;;;20.75;15.70;;;;;;;;;;5066457;28;20037;-76
2022/09/25 03:44:15;;;;;;;17.40;15.32;;;;;;;;;;5068992;28;20160;-76
2022/09/25 03:46:42;;;;;;;18.63;16.13;;;;;;;;;;5068652;28;20548;-76
2022/09/25 03:49:09;;;;;;;21.70;16.48;;;;;;;;;;5067470;28;20120;-76
2022/09/25 03:51:37;;;;;;;18.15;15.00;;;;;;;;;;5071105;28;20052;-76
2022/09/25 03:54:05;;;;;;;17.90;15.82;;;;;;;;;;5070722;28;20040;-76
2022/09/25 03:56:32;;;;;;;16.33;14.55;;;;;;;;;;5070475;28;20416;-76
2022/09/25 03:58:59;;;;;;;18.98;14.77;;;;;;;;;;5067890;28;20127;-76
2022/09/25 04:01:27;;;;;;;18.70;15.10;;;;;;;;;;5050968;28;20060;-76
2022/09/25 04:03:54;;;;;;;17.35;14.90;;;;;;;;;;5070448;28;20048;-76
2022/09/25 04:06:24;;;;;;;16.83;15.02;;;;;;;;;;5063249;28;20048;-77
2022/09/25 04:08:51;;;;;;;19.30;16.40;;;;;;;;;;5067407;28;20049;-77
2022/09/25 04:11:20;;;;;;;16.33;14.63;;;;;;;;;;5065520;28;20036;-74
2022/09/25 04:13:47;;;;;;;14.90;13.40;;;;;;;;;;5066167;28;20151;-75
2022/09/25 04:16:40;;;;;;;16.52;14.45;;;;;;;;;;5063049;28;20076;-73
2022/09/25 04:19:08;;;;;;;18.58;14.82;;;;;;;;;;5050225;28;20116;-75
2022/09/25 04:21:35;;;;;;;16.10;14.13;;;;;;;;;;5068643;28;20038;-76
2022/09/25 04:26:51;;;;;;;15.30;13.50;;;;;;;;;;5047045;28;20564;-75
2022/09/25 04:29:20;;;;;;;16.83;14.43;;;;;;;;;;5032838;28;20041;-75
2022/09/25 04:33:44;;;;;;;15.68;13.75;;;;;;;;;;5048401;28;20061;-75
2022/09/25 04:34:34;;;;;;;16.92;14.38;;;;;;;;;;5047426;28;20162;-75
2022/09/25 04:37:02;;;;;;;14.77;12.93;;;;;;;;;;5045888;28;20083;-76
2022/09/25 04:39:29;;;;;;;14.50;13.10;;;;;;;;;;5032518;28;20037;-76
2022/09/25 04:41:57;;;;;;;15.32;13.43;;;;;;;;;;5048826;28;20124;-75
2022/09/25 04:44:24;;;;;;;15.10;13.50;;;;;;;;;;5049676;28;20041;-76
2022/09/25 04:46:51;;;;;;;15.38;13.50;;;;;;;;;;5044244;28;20124;-76
2022/09/25 04:49:19;;;;;;;17.13;15.27;;;;;;;;;;5043954;28;20067;-75
2022/09/25 04:51:46;;;;;;;17.42;15.38;;;;;;;;;;5049371;28;20120;-76
2022/09/25 04:54:15;;;;;;;18.23;14.77;;;;;;;;;;5031391;28;20522;-75
2022/09/25 04:56:45;;;;;;;16.15;14.30;;;;;;;;;;5048279;28;20114;-76
2022/09/25 04:59:16;;;;;;;15.35;13.75;;;;;;;;;;5045952;28;20537;-75
2022/09/25 05:01:43;;;;;;;21.00;15.43;;;;;;;;;;5032393;28;20068;-76
2022/09/25 05:04:10;;;;;;;19.20;16.58;;;;;;;;;;5047935;28;20067;-75
2022/09/25 05:06:38;;;;;;;17.63;13.93;;;;;;;;;;5031047;28;20040;-75
2022/09/25 05:09:05;;;;;;;15.77;14.27;;;;;;;;;;5049444;28;20072;-76
2022/09/25 05:11:33;;;;;;;17.92;16.08;;;;;;;;;;5046175;28;20069;-75
2022/09/25 05:14:00;;;;;;;19.60;16.13;;;;;;;;;;5047884;28;20115;-76
2022/09/25 05:16:29;;;;;;;14.40;13.00;;;;;;;;;;5029730;28;20041;-76
2022/09/25 05:18:56;;;;;;;16.60;14.88;;;;;;;;;;5044898;28;20036;-76
2022/09/25 05:21:24;;;;;;;15.95;14.32;;;;;;;;;;5015042;28;20156;-75
2022/09/25 05:23:51;;;;;;;17.50;15.77;;;;;;;;;;5043089;28;20076;-76
2022/09/25 05:26:18;;;;;;;16.85;15.25;;;;;;;;;;5046672;28;20048;-77
2022/09/25 05:28:49;;;;;;;15.35;13.93;;;;;;;;;;5027754;28;20072;-77
2022/09/25 05:31:17;;;;;;;16.27;14.60;;;;;;;;;;5048111;28;20045;-77
2022/09/25 05:33:44;;;;;;;15.80;14.10;;;;;;;;;;5012036;28;20048;-77
2022/09/25 05:36:11;;;;;;;16.50;14.80;;;;;;;;;;5030022;28;20283;-77
2022/09/25 05:38:39;;;;;;;16.42;14.40;;;;;;;;;;5043685;28;20094;-77
2022/09/25 05:41:08;;;;;;;16.50;14.48;;;;;;;;;;5049011;28;20041;-77
2022/09/25 05:43:39;;;;;;;16.88;15.23;;;;;;;;;;5045551;28;20493;-77
2022/09/25 05:46:06;;;;;;;16.13;14.43;;;;;;;;;;5030270;28;20052;-76
2022/09/25 05:48:33;;;;;;;16.48;14.75;;;;;;;;;;5046635;28;20052;-75
2022/09/25 05:51:01;;;;;;;15.75;14.15;;;;;;;;;;5029864;28;20098;-75
2022/09/25 05:53:29;;;;;;;12.40;11.15;;;;;;;;;;5048401;28;20142;-75
2022/09/25 05:55:58;;;;;;;16.00;14.48;;;;;;;;;;5047939;28;20048;-74
2022/09/25 05:58:26;;;;;;;16.00;14.10;;;;;;;;;;5019667;28;20119;-76
2022/09/25 06:00:53;;;;;;;19.13;17.15;;;;;;;;;;5048760;28;20061;-77
2022/09/25 06:03:21;;;;;;;17.23;15.52;;;;;;;;;;5046660;28;20041;-76
2022/09/25 06:05:48;;;;;;;17.02;15.32;;;;;;;;;;5046735;28;20067;-77
2022/09/25 06:08:15;;;;;;;16.25;14.75;;;;;;;;;;5046241;28;20102;-77
2022/09/25 06:10:43;;;;;;;15.13;13.40;;;;;;;;;;5029381;28;20049;-77
2022/09/25 06:13:10;;;;;;;13.77;12.52;;;;;;;;;;5051072;28;20124;-81
2022/09/25 06:15:40;;;;;;;14.60;13.40;;;;;;;;;;5033457;28;20151;-75
2022/09/25 06:18:08;;;;;;;13.50;12.30;;;;;;;;;;5048824;28;20059;-76
2022/09/25 06:20:36;;;;;;;14.80;13.38;;;;;;;;;;5029209;28;20045;-76
2022/09/25 06:23:03;;;;;;;14.73;13.13;;;;;;;;;;5052833;28;20045;-76
2022/09/25 06:25:35;;;;;;;13.90;12.63;;;;;;;;;;5054326;28;20068;-77
2022/09/25 06:28:02;;;;;;;13.73;12.52;;;;;;;;;;5054356;28;20171;-77
2022/09/25 06:30:35;;;;;;;13.10;11.80;;;;;;;;;;5052552;28;20040;-78
2022/09/25 06:33:02;;;;;;;13.15;11.95;;;;;;;;;;5044300;28;20078;-77
2022/09/25 06:35:30;;;;;;;13.93;12.63;;;;;;;;;;5047027;28;20127;-76
2022/09/25 06:37:57;;;;;;;14.30;12.88;;;;;;;;;;5024256;28;20124;-76
2022/09/25 06:40:26;;;;;;;15.15;13.68;;;;;;;;;;5049630;28;20064;-76
2022/09/25 06:42:58;;;;;;;14.30;12.90;;;;;;;;;;5031338;28;20049;-76
2022/09/25 06:45:25;;;;;;;15.03;13.50;;;;;;;;;;5048339;28;20052;-76
2022/09/25 06:47:56;;;;;;;17.95;14.68;;;;;;;;;;5052520;28;20120;-76
2022/09/25 06:50:30;;;;;;;17.05;15.27;;;;;;;;;;5050527;28;20453;-77
2022/09/25 06:53:00;;;;;;;16.55;14.82;;;;;;;;;;5034032;28;20041;-76
2022/09/25 06:55:30;;;;;;;17.02;15.23;;;;;;;;;;5047354;28;20106;-76
2022/09/25 06:57:58;;;;;;;18.63;16.67;;;;;;;;;;5033984;28;20498;-76
2022/09/25 07:00:25;;;;;;;18.70;16.90;;;;;;;;;;5046206;28;20048;-76
2022/09/25 07:05:38;;;;;;;18.08;16.25;;;;;;;;;;5045742;28;20051;-77
2022/09/25 07:08:05;;;;;;;19.88;17.83;;;;;;;;;;5032639;28;20043;-77
2022/09/25 07:10:32;;;;;;;20.75;18.67;;;;;;;;;;5047749;28;20040;-76
2022/09/25 07:13:00;;;;;;;19.38;17.35;;;;;;;;;;5052142;28;20085;-76
2022/09/25 07:15:28;;;;;;;18.92;17.00;;;;;;;;;;5052422;28;20124;-76
2022/09/25 07:17:55;;;;;;;16.80;15.13;;;;;;;;;;5053434;28;20123;-77
2022/09/25 07:20:22;;;;;;;17.98;16.00;;;;;;;;;;5050066;28;20056;-76
2022/09/25 07:22:50;;;;;;;17.83;16.13;;;;;;;;;;5034693;28;20048;-77
2022/09/25 07:25:20;;;;;;;15.60;14.10;;;;;;;;;;5054001;28;20106;-77
2022/09/25 07:27:47;;;;;;;15.60;14.25;;;;;;;;;;5048851;28;20068;-77
2022/09/25 07:30:15;;;;;;;16.08;14.43;;;;;;;;;;5048576;28;20792;-77
2022/09/25 07:32:43;;;;;;;16.40;14.82;;;;;;;;;;5051108;28;20041;-76
2022/09/25 07:35:10;;;;;;;16.38;14.77;;;;;;;;;;5048554;28;20075;-77
2022/09/25 07:37:38;;;;;;;15.65;14.05;;;;;;;;;;5053651;28;20045;-80
2022/09/25 07:40:06;;;;;;;17.17;15.05;;;;;;;;;;5056242;28;20041;-76
2022/09/25 07:42:41;;;;;;;16.17;14.45;;;;;;;;;;5051821;28;20132;-76
2022/09/25 07:45:09;;;;;;;15.63;14.23;;;;;;;;;;5050938;28;20421;-77
2022/09/25 07:47:36;;;;;;;16.63;15.05;;;;;;;;;;5056531;28;20079;-79
2022/09/25 07:50:04;;;;;;;19.67;16.70;;;;;;;;;;5033030;28;20105;-77
2022/09/25 07:52:32;;;;;;;17.98;16.15;;;;;;;;;;5032876;28;20128;-76
2022/09/25 07:54:59;;;;;;;16.95;15.20;;;;;;;;;;5035430;28;20493;-76
2022/09/25 07:57:27;;;;;;;16.65;14.82;;;;;;;;;;5055454;28;20139;-75
2022/09/25 07:59:54;;;;;;;14.77;13.48;;;;;;;;;;5038117;28;20049;-76
2022/09/25 08:02:22;;;;;;;14.55;13.15;;;;;;;;;;5054815;28;20037;-76
2022/09/25 08:04:49;;;;;;;14.35;12.95;;;;;;;;;;5051803;28;20049;-76
2022/09/25 08:07:16;;;;;;;14.40;13.10;;;;;;;;;;5047943;28;20698;-77
2022/09/25 08:09:43;;;;;;;14.57;13.07;;;;;;;;;;5032965;28;20065;-76
2022/09/25 08:12:12;;;;;;;12.73;11.52;;;;;;;;;;5048058;28;20056;-77
2022/09/25 08:14:40;;;;;;;12.30;11.30;;;;;;;;;;5044861;28;20069;-76
2022/09/25 08:17:07;;;;;;;13.30;12.20;;;;;;;;;;5050133;28;20041;-76
2022/09/25 08:19:35;;;;;;;13.40;11.60;;;;;;;;;;5032116;28;20033;-76
2022/09/25 08:22:02;;;;;;;12.57;11.50;;;;;;;;;;5038132;28;20511;-76
2022/09/25 08:24:29;;;;;;;11.82;10.77;;;;;;;;;;5046440;28;20045;-76
2022/09/25 08:26:56;;;;;;;11.75;10.75;;;;;;;;;;5029812;28;20119;-76
2022/09/25 08:29:24;;;;;;;11.88;10.77;;;;;;;;;;5047009;28;20037;-76
2022/09/25 08:31:52;;;;;;;11.45;10.30;;;;;;;;;;5047551;28;20036;-77
2022/09/25 08:34:21;;;;;;;11.35;10.32;;;;;;;;;;5056315;28;20044;-77
2022/09/25 08:37:07;;;;;;;11.93;10.82;;;;;;;;;;5042800;28;20067;-76
2022/09/25 08:39:34;;;;;;;13.00;11.80;;;;;;;;;;5045744;28;20098;-77
2022/09/25 08:42:02;;;;;;;13.07;11.80;;;;;;;;;;5045717;28;20453;-77
2022/09/25 08:44:44;;;;;;;11.90;10.80;;;;;;;;;;5048808;28;20341;-75
2022/09/25 08:50:34;;;;;;;12.77;11.48;;;;;;;;;;5001515;28;20045;-77
2022/09/25 08:53:15;;;;;;;11.50;10.18;;;;;;;;;;5041040;28;20065;-75
2022/09/25 08:58:31;;;;;;;11.43;10.45;;;;;;;;;;5028766;28;20044;-76
2022/09/25 09:01:01;;;;;;;12.43;11.23;;;;;;;;;;5044920;28;20037;-76
2022/09/25 09:03:30;;;;;;;12.07;10.68;;;;;;;;;;5040626;28;20100;-76
2022/09/25 09:06:10;;;;;;;12.32;11.13;;;;;;;;;;5041159;28;20574;-76
2022/09/25 09:08:39;;;;;;;11.60;10.60;;;;;;;;;;5047486;28;20049;-76
2022/09/25 09:11:16;;;;;;;11.55;10.50;;;;;;;;;;5048928;28;20041;-76
2022/09/25 09:13:50;;;;;;;11.70;10.70;;;;;;;;;;5045496;28;20041;-77
2022/09/25 09:16:26;;;;;;;12.15;10.95;;;;;;;;;;5048972;28;20037;-77
2022/09/25 09:18:55;;;;;;;12.50;11.32;;;;;;;;;;5041099;28;20048;-76
2022/09/25 09:21:28;;;;;;;13.90;12.60;;;;;;;;;;5047851;28;20574;-76
2022/09/25 09:24:07;;;;;;;11.40;10.40;;;;;;;;;;5048451;28;20536;-76
2022/09/25 09:26:44;;;;;;;11.38;10.35;;;;;;;;;;5050804;28;20048;-77
2022/09/25 09:29:26;;;;;;;12.70;11.32;;;;;;;;;;5049479;28;20102;-76
2022/09/25 09:32:10;;;;;;;10.85;9.80;;;;;;;;;;5049605;28;20111;-77
2022/09/25 09:34:49;;;;;;;11.40;10.40;;;;;;;;;;5033985;28;20131;-77
2022/09/25 09:37:45;;;;;;;12.90;11.70;;;;;;;;;;5048360;28;20092;-76
2022/09/25 09:40:20;;;;;;;11.90;10.70;;;;;;;;;;5047846;28;20098;-76
2022/09/25 09:43:02;;;;;;;11.70;10.60;;;;;;;;;;5048215;28;20453;-76
2022/09/25 09:45:45;;;;;;;14.38;12.00;;;;;;;;;;5055462;28;20043;-77
2022/09/25 09:48:15;;;;;;;11.02;9.93;;;;;;;;;;5055052;28;20166;-76
2022/09/25 09:50:46;;;;;;;13.10;11.43;;;;;;;;;;5054820;28;20555;-76
2022/09/25 09:53:32;;;;;;;11.27;10.18;;;;;;;;;;5051109;28;20041;-76
2022/09/25 09:56:13;;;;;;;11.95;10.85;;;;;;;;;;5047662;28;20060;-76
2022/09/25 09:58:47;;;;;;;11.93;10.83;;;;;;;;;;5044448;28;20049;-76
2022/09/25 10:01:15;;;;;;;11.57;9.63;;;;;;;;;;5045741;28;20079;-77
2022/09/25 10:04:06;;;;;;;11.50;10.38;;;;;;;;;;5043518;28;20051;-76
2022/09/25 10:06:35;;;;;;;11.23;10.15;;;;;;;;;;5045814;28;20043;-76
2022/09/25 10:09:03;;;;;;;14.68;10.70;;;;;;;;;;5026904;28;20060;-78
2022/09/25 10:11:31;;;;;;;11.43;10.40;;;;;;;;;;5047771;28;20036;-76
2022/09/25 10:13:58;;;;;;;11.05;9.93;;;;;;;;;;5046755;28;20045;-77
2022/09/25 10:16:26;;;;;;;12.02;10.82;;;;;;;;;;5045043;28;20064;-77
2022/09/25 10:19:18;;;;;;;11.48;10.38;;;;;;;;;;5044713;28;20041;-78
2022/09/25 10:21:45;;;;;;;10.48;9.40;;;;;;;;;;5032052;28;20489;-78
2022/09/25 10:24:50;;;;;;;11.57;10.55;;;;;;;;;;5033456;28;20045;-77
2022/09/25 10:27:27;;;;;;;13.68;12.48;;;;;;;;;;5050595;28;20041;-77
2022/09/25 10:30:02;;;;;;;15.23;13.02;;;;;;;;;;5047919;28;20047;-77
2022/09/25 10:32:30;;;;;;;20.88;18.60;;;;;;;;;;5054560;28;20056;-77
2022/09/25 10:34:57;;;;;;;22.67;19.02;;;;;;;;;;5049422;28;20033;-77
2022/09/25 10:37:29;;;;;;;22.55;18.48;;;;;;;;;;5048056;28;20044;-77
2022/09/25 10:40:01;;;;;;;20.83;18.63;;;;;;;;;;5037713;28;20049;-76
2022/09/25 10:42:38;;;;;;;22.20;19.90;;;;;;;;;;5050038;28;20037;-77
2022/09/25 10:45:26;;;;;;;22.67;20.40;;;;;;;;;;5045922;28;20072;-78
2022/09/25 10:50:41;;;;;;;23.30;20.92;;;;;;;;;;5043697;28;20146;-77
2022/09/25 10:53:27;;;;;;;23.40;19.77;;;;;;;;;;5030334;28;20052;-76
2022/09/25 10:55:59;;;;;;;21.48;19.27;;;;;;;;;;5040645;28;20045;-77
2022/09/25 10:58:30;;;;;;;19.90;18.08;;;;;;;;;;5042159;28;20048;-77
2022/09/25 11:00:59;;;;;;;18.48;16.75;;;;;;;;;;5048332;28;20041;-76
2022/09/25 11:03:27;;;;;;;17.30;15.65;;;;;;;;;;5048188;28;20141;-78
2022/09/25 11:06:04;;;;;;;18.30;16.55;;;;;;;;;;5048086;28;20060;-78
2022/09/25 11:08:33;;;;;;;19.83;17.83;;;;;;;;;;5047983;28;20056;-78
2022/09/25 11:11:02;;;;;;;20.00;17.90;;;;;;;;;;5047851;28;20131;-78
2022/09/25 11:13:37;;;;;;;17.23;15.63;;;;;;;;;;5044403;28;20041;-78
2022/09/25 11:16:09;;;;;;;17.15;15.45;;;;;;;;;;5033713;28;20049;-78
2022/09/25 11:18:41;;;;;;;16.65;14.95;;;;;;;;;;5030368;28;20041;-79
2022/09/25 11:21:18;;;;;;;17.88;16.00;;;;;;;;;;5050260;28;20052;-78
2022/09/25 11:23:51;;;;;;;16.65;15.05;;;;;;;;;;5029917;28;20126;-79
2022/09/25 11:26:20;;;;;;;16.70;15.18;;;;;;;;;;5033655;28;20049;-79
2022/09/25 11:28:51;;;;;;;18.60;16.27;;;;;;;;;;5046837;28;20053;-79
2022/09/25 11:31:25;;;;;;;16.70;15.15;;;;;;;;;;5050652;28;20051;-79
2022/09/25 11:34:03;;;;;;;15.82;14.35;;;;;;;;;;5048626;28;20033;-80
2022/09/25 11:36:45;;;;;;;16.45;14.95;;;;;;;;;;5052480;28;20090;-79
2022/09/25 11:42:13;;;;;;;16.48;14.88;;;;;;;;;;5051375;28;20574;-78
2022/09/25 11:44:46;;;;;;;16.38;14.68;;;;;;;;;;5045326;28;20132;-78
2022/09/25 11:47:14;;;;;;;16.83;15.23;;;;;;;;;;5052835;28;20052;-79
2022/09/25 11:49:42;;;;;;;15.45;13.95;;;;;;;;;;5045590;28;20155;-79
2022/09/25 11:52:15;;;;;;;15.70;14.30;;;;;;;;;;5048236;28;20037;-78
2022/09/25 11:54:51;;;;;;;15.27;13.68;;;;;;;;;;5053961;28;20120;-78
2022/09/25 11:57:22;;;;;;;13.70;12.40;;;;;;;;;;5055411;28;20037;-79
2022/09/25 12:00:16;;;;;;;15.75;13.20;;;;;;;;;;5062351;28;20051;-78
2022/09/25 12:03:05;;;;;;;16.45;14.77;;;;;;;;;;5020137;28;20044;-79
2022/09/25 12:05:46;;;;;;;16.17;14.77;;;;;;;;;;5054853;28;20047;-78
2022/09/25 12:08:17;;;;;;;14.45;13.15;;;;;;;;;;5052751;28;20526;-78
2022/09/25 12:10:45;;;;;;;;;;;;;;;;;;5045053;28;20037;-79
2022/09/25 12:13:35;;;;;;;13.25;12.10;;;;;;;;;;5030720;28;19929;-78
2022/09/25 12:16:10;;;;;;;14.85;13.32;;;;;;;;;;5026221;28;20088;-78
2022/09/25 12:18:39;;;;;;;15.93;14.52;;;;;;;;;;5047382;28;20052;-78
2022/09/25 12:21:25;;;;;;;16.05;14.55;;;;;;;;;;5044574;28;20166;-78
2022/09/25 12:24:09;;;;;;;17.95;16.05;;;;;;;;;;5040870;28;20100;-78
2022/09/25 12:26:46;;;;;;;14.82;13.45;;;;;;;;;;5025940;28;20352;-78
2022/09/25 12:29:19;;;;;;;15.05;13.75;;;;;;;;;;5042398;28;20054;-78
2022/09/25 12:31:52;;;;;;;17.38;15.63;;;;;;;;;;5047200;28;20352;-77
2022/09/25 12:34:28;;;;;;;16.92;15.32;;;;;;;;;;5026613;28;20041;-79
2022/09/25 12:37:12;;;;;;;16.27;14.68;;;;;;;;;;5041116;28;20041;-78
2022/09/25 12:39:55;;;;;;;15.13;13.70;;;;;;;;;;5048775;28;20041;-78
2022/09/25 12:42:23;;;;;;;16.52;14.93;;;;;;;;;;5050003;28;20049;-78
2022/09/25 12:45:02;;;;;;;15.88;14.40;;;;;;;;;;5050443;28;20041;-78
2022/09/25 12:47:40;;;;;;;18.52;16.80;;;;;;;;;;5048539;28;20077;-78
2022/09/25 12:50:11;;;;;;;17.98;16.27;;;;;;;;;;5046084;28;20094;-78
2022/09/25 12:52:41;;;;;;;19.27;17.37;;;;;;;;;;5044011;28;20489;-78
2022/09/25 12:55:20;;;;;;;18.08;16.20;;;;;;;;;;5028087;28;20295;-78
2022/09/25 12:57:53;;;;;;;18.60;16.83;;;;;;;;;;5014400;28;20060;-78
2022/09/25 13:00:22;;;;;;;15.85;14.35;;;;;;;;;;5037857;28;20045;-78
2022/09/25 13:03:00;;;;;;;17.90;15.82;;;;;;;;;;5030878;28;20064;-79
2022/09/25 13:05:36;;;;;;;17.48;15.77;;;;;;;;;;5049514;28;20040;-78
2022/09/25 13:08:25;;;;;;;16.02;14.63;;;;;;;;;;5053825;28;20036;-77
2022/09/25 13:10:56;;;;;;;18.63;16.92;;;;;;;;;;5026355;28;21407;-78
2022/09/25 13:13:28;;;;;;;18.48;16.77;;;;;;;;;;5049498;28;20064;-79
2022/09/25 13:15:56;;;;;;;19.50;17.55;;;;;;;;;;5052571;28;20040;-78
2022/09/25 13:18:24;;;;;;;21.13;19.00;;;;;;;;;;5030533;28;20051;-78
2022/09/25 13:20:56;;;;;;;23.30;21.10;;;;;;;;;;5026695;28;20554;-78
2022/09/25 13:23:32;;;;;;;18.80;17.08;;;;;;;;;;5013320;28;20052;-80
2022/09/25 13:26:17;;;;;;;19.23;17.48;;;;;;;;;;5047570;28;20048;-78
2022/09/25 13:28:50;;;;;;;18.50;16.73;;;;;;;;;;5038428;28;20057;-78
2022/09/25 13:31:28;;;;;;;250.32;215.80;;;;;;;;;;5026512;28;20042;-78
2022/09/25 13:34:02;;;;;;;16.85;15.25;;;;;;;;;;5033917;28;20041;-78
2022/09/25 13:36:29;;;;;;;16.30;14.77;;;;;;;;;;5044888;28;20040;-78
2022/09/25 13:41:48;;;;;;;15.52;14.13;;;;;;;;;;5048556;28;20044;-78
2022/09/25 13:44:38;;;;;;;16.00;14.40;;;;;;;;;;5049369;28;20154;-78
2022/09/25 13:47:37;;;;;;;15.40;13.90;;;;;;;;;;5031901;28;20065;-77
2022/09/25 13:50:10;;;;;;;15.35;13.85;;;;;;;;;;4954378;28;20056;-77
2022/09/25 13:52:46;;;;;;;15.80;14.20;;;;;;;;;;5044731;28;20033;-78
2022/09/25 13:55:20;;;;;;;15.50;14.10;;;;;;;;;;5046837;28;20464;-78
2022/09/25 13:57:54;;;;;;;15.77;14.38;;;;;;;;;;5029254;28;20037;-78
2022/09/25 14:00:22;;;;;;;15.75;14.25;;;;;;;;;;5041432;28;20036;-78
2022/09/25 14:02:49;;;;;;;17.15;15.50;;;;;;;;;;5046474;28;20137;-77
2022/09/25 14:05:19;;;;;;;18.20;16.50;;;;;;;;;;5039550;28;20040;-78
2022/09/25 14:07:49;;;;;;;15.95;14.57;;;;;;;;;;5027992;28;20041;-78
2022/09/25 14:10:17;;;;;;;15.15;13.90;;;;;;;;;;5047209;28;20072;-78
2022/09/25 14:12:46;;;;;;;16.08;14.68;;;;;;;;;;5061393;28;20098;-78
2022/09/25 14:15:23;;;;;;;16.40;14.80;;;;;;;;;;5041135;28;20155;-78
2022/09/25 14:17:52;;;;;;;15.98;14.45;;;;;;;;;;5041442;28;20032;-78
2022/09/25 14:20:29;;;;;;;15.75;14.07;;;;;;;;;;5040355;28;20045;-79
2022/09/25 14:23:04;;;;;;;15.82;14.40;;;;;;;;;;5045706;28;20612;-78
2022/09/25 14:25:37;;;;;;;16.30;14.70;;;;;;;;;;5022447;28;20664;-78
2022/09/25 14:28:15;;;;;;;14.98;13.50;;;;;;;;;;5024665;28;20045;-78
2022/09/25 14:31:03;;;;;;;14.80;13.15;;;;;;;;;;5030456;28;20060;-77
2022/09/25 14:33:41;;;;;;;14.35;13.05;;;;;;;;;;5030359;28;20037;-78
2022/09/25 14:36:28;;;;;;;15.73;14.23;;;;;;;;;;5015231;28;20525;-79
2022/09/25 14:39:14;;;;;;;15.63;14.25;;;;;;;;;;5025367;28;20489;-78
2022/09/25 14:41:48;;;;;;;16.33;14.82;;;;;;;;;;5042554;28;20422;-82
2022/09/25 14:44:39;;;;;;;14.68;13.32;;;;;;;;;;5055216;28;20060;-80
2022/09/25 14:47:09;;;;;;;13.98;12.63;;;;;;;;;;5036081;28;20041;-78
2022/09/25 14:49:42;;;;;;;14.90;13.50;;;;;;;;;;5033133;28;20433;-79
2022/09/25 14:52:15;;;;;;;13.82;12.43;;;;;;;;;;5027200;28;20052;-79
2022/09/25 14:54:45;;;;;;;14.02;12.82;;;;;;;;;;5029177;28;20037;-80
2022/09/25 14:57:16;;;;;;;13.43;12.20;;;;;;;;;;5028626;28;20056;-79
2022/09/25 14:59:51;;;;;;;14.15;12.95;;;;;;;;;;5035803;28;20047;-78
2022/09/25 15:02:24;;;;;;;13.73;12.30;;;;;;;;;;5037944;28;20049;-79
2022/09/25 15:04:57;;;;;;;12.68;11.68;;;;;;;;;;5016141;28;20074;-77
2022/09/25 15:07:29;;;;;;;14.52;12.85;;;;;;;;;;5017384;28;20045;-76